Time;durP1;ratioP1;P1;durP2;ratioP2;P2;SDS_P1;SDS_P2;PMS_P1;PMS_P2;Temp;Humidity;BMP_temperature;BMP_pressure;BME280_temperature;BME280_humidity;BME280_pressure;Samples;Min_cycle;Max_cycle;Signal;HPM_P1;HPM_P2
2022/12/22 03:26:29;;;;;;;10.93;7.53;;;8.70;1.00;;;;;;5015559;28;20189;-66
2022/12/22 03:28:56;;;;;;;9.47;7.33;;;8.70;1.00;;;;;;5016967;28;20287;-67
2022/12/22 03:31:23;;;;;;;10.00;7.67;;;8.70;1.00;;;;;;5006159;28;20225;-67
2022/12/22 03:33:50;;;;;;;9.00;8.20;;;8.60;80.20;;;;;;5005711;28;20247;-66
2022/12/22 03:36:17;;;;;;;9.57;7.53;;;8.60;99.90;;;;;;4996892;28;20293;-67
2022/12/22 03:38:44;;;;;;;11.80;7.77;;;8.70;99.90;;;;;;5005489;28;20507;-66
2022/12/22 03:46:29;;;;;;;9.50;7.77;;;8.60;1.00;;;;;;5005959;28;20963;-65
2022/12/22 03:46:43;;;;;;;8.77;7.57;;;8.70;1.00;;;;;;5015991;28;20192;-66
2022/12/22 03:49:10;;;;;;;8.90;7.70;;;8.70;1.00;;;;;;4999859;28;20287;-62
2022/12/22 03:51:43;;;;;;;9.03;7.13;;;8.70;99.90;;;;;;5002819;28;20208;-62
2022/12/22 03:54:16;;;;;;;11.17;8.13;;;8.70;99.90;;;;;;4997841;28;20216;-62
2022/12/22 03:56:43;;;;;;;10.43;7.57;;;8.70;99.90;;;;;;4997160;28;20655;-62
2022/12/22 03:59:11;;;;;;;9.23;7.80;;;8.70;1.00;;;;;;5015249;28;20197;-61
2022/12/22 04:01:43;;;;;;;11.00;8.30;;;8.70;1.00;;;;;;5014108;28;20279;-63
2022/12/22 04:04:12;;;;;;;12.60;8.20;;;8.70;1.00;;;;;;5001910;28;20325;-62
2022/12/22 04:06:39;;;;;;;9.73;8.43;;;8.70;1.00;;;;;;4955955;28;20212;-64
2022/12/22 04:09:06;;;;;;;10.17;8.67;;;8.70;1.00;;;;;;4985020;28;20197;-63
2022/12/22 04:14:20;;;;;;;8.80;7.67;;;8.70;1.00;;;;;;4994284;28;20535;-62
2022/12/22 04:16:48;;;;;;;7.93;7.13;;;8.70;1.00;;;;;;4986321;28;20248;-62
2022/12/22 04:19:15;;;;;;;7.93;7.13;;;8.70;87.90;;;;;;4995540;28;20280;-62
2022/12/22 04:21:43;;;;;;;9.47;8.07;;;8.70;99.90;;;;;;4968740;28;20935;-63
2022/12/22 04:24:13;;;;;;;9.93;8.30;;;8.70;99.90;;;;;;4985588;28;20248;-62
2022/12/22 04:26:40;;;;;;;10.67;9.57;;;8.70;99.90;;;;;;4978267;28;20653;-61
2022/12/22 04:29:07;;;;;;;10.90;9.17;;;8.70;99.90;;;;;;4979633;28;20593;-62
2022/12/22 04:31:34;;;;;;;9.10;8.20;;;8.70;99.90;;;;;;4995945;28;20231;-62
2022/12/22 04:34:01;;;;;;;9.07;7.90;;;8.70;1.00;;;;;;4978918;28;20202;-61
2022/12/22 04:36:28;;;;;;;10.90;8.20;;;8.70;1.00;;;;;;4994733;28;20356;-61
2022/12/22 04:38:55;;;;;;;12.27;7.83;;;8.70;1.00;;;;;;4993693;28;20688;-62
2022/12/22 04:41:22;;;;;;;8.23;7.37;;;8.70;51.50;;;;;;4985916;28;20197;-61
2022/12/22 04:43:49;;;;;;;11.17;8.47;;;8.70;99.90;;;;;;4993547;28;20249;-61
2022/12/22 04:46:15;;;;;;;47.73;8.60;;;8.70;99.90;;;;;;4969411;28;20678;-62
2022/12/22 04:48:43;;;;;;;8.73;7.23;;;8.70;1.00;;;;;;4983264;28;20283;-64
2022/12/22 04:51:09;;;;;;;8.20;7.33;;;8.70;1.00;;;;;;4999530;28;20713;-62
2022/12/22 04:53:36;;;;;;;10.07;7.87;;;8.70;1.00;;;;;;4973111;28;20248;-62
2022/12/22 04:56:06;;;;;;;12.73;8.80;;;8.70;1.00;;;;;;4998142;28;20220;-63
2022/12/22 04:58:33;;;;;;;12.27;7.90;;;8.70;1.00;;;;;;4999468;28;20197;-61
2022/12/22 05:01:12;;;;;;;12.13;8.50;;;8.70;6.00;;;;;;4982126;28;20207;-63
2022/12/22 05:03:39;;;;;;;12.83;8.83;;;8.80;99.90;;;;;;5007712;28;20326;-62
2022/12/22 05:06:06;;;;;;;14.33;9.47;;;8.70;99.90;;;;;;5001662;28;20204;-62
2022/12/22 05:08:34;;;;;;;10.80;9.03;;;8.70;99.90;;;;;;4998650;28;20337;-61
2022/12/22 05:11:01;;;;;;;12.57;8.47;;;8.70;99.90;;;;;;5019284;28;20204;-62
2022/12/22 05:13:30;;;;;;;9.23;7.73;;;8.70;1.00;;;;;;5016896;28;20673;-62
2022/12/22 05:16:09;;;;;;;10.83;8.33;;;8.70;1.00;;;;;;5015300;28;20646;-67
2022/12/22 05:18:39;;;;;;;9.17;8.17;;;8.70;1.00;;;;;;4991985;28;20556;-67
2022/12/22 05:21:17;;;;;;;11.90;7.60;;;8.70;1.00;;;;;;5018919;28;20188;-66
2022/12/22 05:23:45;;;;;;;9.90;8.07;;;8.70;1.00;;;;;;4999738;28;20232;-66
2022/12/22 05:26:13;;;;;;;8.43;7.13;;;8.80;1.00;;;;;;5016693;28;20584;-66
2022/12/22 05:28:42;;;;;;;14.87;10.90;;;8.70;1.00;;;;;;5018049;28;20204;-67
2022/12/22 05:31:13;;;;;;;11.07;7.73;;;8.80;1.00;;;;;;5018051;28;20283;-67
2022/12/22 05:33:40;;;;;;;11.73;8.23;;;8.80;23.90;;;;;;5017011;28;20224;-66
2022/12/22 05:36:07;;;;;;;12.33;8.03;;;8.80;99.90;;;;;;5018028;28;20472;-67
2022/12/22 05:38:34;;;;;;;8.83;7.70;;;8.80;99.90;;;;;;5008637;28;20256;-67
2022/12/22 05:41:01;;;;;;;10.47;7.30;;;8.80;99.90;;;;;;5017298;28;20216;-67
2022/12/22 05:43:31;;;;;;;11.93;8.53;;;8.80;99.90;;;;;;5001635;28;20207;-67
2022/12/22 05:46:06;;;;;;;12.57;10.30;;;8.80;99.90;;;;;;5016367;28;20735;-67
2022/12/22 05:48:35;;;;;;;13.50;9.00;;;8.80;99.90;;;;;;5017568;28;20218;-67
2022/12/22 05:51:07;;;;;;;13.73;9.73;;;8.80;1.00;;;;;;5018967;28;20185;-67
2022/12/22 05:53:35;;;;;;;16.30;10.90;;;8.80;1.00;;;;;;5006443;28;20216;-67
2022/12/22 05:56:02;;;;;;;13.93;10.63;;;8.80;1.00;;;;;;5006238;28;20193;-67
2022/12/22 05:58:29;;;;;;;11.87;9.70;;;8.70;1.00;;;;;;5017979;28;20597;-67
2022/12/22 06:00:57;;;;;;;12.60;9.50;;;8.70;1.00;;;;;;5015785;28;20199;-67
2022/12/22 06:03:25;;;;;;;15.17;10.30;;;8.70;1.00;;;;;;5013880;28;20289;-66
2022/12/22 06:05:53;;;;;;;14.77;10.90;;;8.70;1.00;;;;;;5013208;28;20259;-67
2022/12/22 06:08:20;;;;;;;15.97;10.50;;;8.70;1.00;;;;;;5017938;28;20640;-67
2022/12/22 06:10:47;;;;;;;17.23;11.30;;;8.70;1.00;;;;;;5000287;28;20304;-67
2022/12/22 06:13:15;;;;;;;15.87;10.53;;;8.70;9.40;;;;;;5015854;28;20208;-67
2022/12/22 06:15:42;;;;;;;14.33;10.80;;;8.70;62.40;;;;;;5017239;28;20726;-67
2022/12/22 06:18:09;;;;;;;21.67;12.73;;;8.80;99.90;;;;;;5007193;28;20215;-68
2022/12/22 06:20:36;;;;;;;20.40;14.57;;;8.70;99.90;;;;;;4998400;28;20675;-68
2022/12/22 06:23:03;;;;;;;16.63;12.77;;;8.70;99.90;;;;;;5002934;28;20630;-66
2022/12/22 06:25:30;;;;;;;18.40;14.40;;;8.70;99.90;;;;;;5014319;28;20193;-67
2022/12/22 06:27:56;;;;;;;18.20;13.77;;;8.70;99.90;;;;;;5017672;28;20223;-67
2022/12/22 06:30:23;;;;;;;20.00;15.90;;;8.70;99.90;;;;;;5017085;28;20239;-67
2022/12/22 06:32:59;;;;;;;18.60;14.63;;;8.70;99.90;;;;;;5001895;28;20205;-67
2022/12/22 06:35:27;;;;;;;16.10;13.60;;;8.70;1.00;;;;;;5006082;28;20524;-67
2022/12/22 06:37:54;;;;;;;19.00;15.20;;;8.70;1.00;;;;;;5002698;28;20203;-68
2022/12/22 06:40:21;;;;;;;25.97;22.43;;;8.70;1.00;;;;;;4989439;28;20751;-66
2022/12/22 06:45:40;;;;;;;19.73;16.57;;;8.70;1.00;;;;;;5014751;28;20200;-68
2022/12/22 06:48:09;;;;;;;17.47;14.30;;;8.80;1.00;;;;;;5015118;28;20193;-68
2022/12/22 06:50:36;;;;;;;13.87;11.93;;;8.80;1.00;;;;;;5003288;28;20242;-67
2022/12/22 06:53:04;;;;;;;14.63;12.67;;;8.70;1.00;;;;;;5015813;28;20750;-67
2022/12/22 06:55:31;;;;;;;13.67;12.10;;;8.70;1.00;;;;;;5002983;28;20243;-68
2022/12/22 06:57:58;;;;;;;15.97;12.13;;;8.70;1.00;;;;;;5018346;28;20217;-68
2022/12/22 07:00:25;;;;;;;16.53;14.73;;;8.70;2.20;;;;;;5006656;28;20246;-67
2022/12/22 07:02:52;;;;;;;17.33;15.53;;;8.80;62.00;;;;;;4997450;28;20239;-67
2022/12/22 07:05:20;;;;;;;13.60;11.80;;;8.70;99.90;;;;;;4996704;28;20288;-66
2022/12/22 07:07:47;;;;;;;12.60;10.23;;;8.70;99.90;;;;;;4999030;28;20962;-67
2022/12/22 07:10:14;;;;;;;10.63;9.37;;;8.70;99.90;;;;;;5000198;28;20232;-67
2022/12/22 07:12:41;;;;;;;11.60;9.93;;;8.80;99.90;;;;;;5017758;28;20239;-67
2022/12/22 07:15:09;;;;;;;11.73;10.27;;;8.80;99.90;;;;;;5018800;28;20819;-68
2022/12/22 07:17:36;;;;;;;13.53;10.63;;;8.80;99.90;;;;;;4999575;28;20258;-68
2022/12/22 07:20:03;;;;;;;18.93;16.90;;;8.80;99.90;;;;;;5000281;28;20181;-67
2022/12/22 07:22:30;;;;;;;17.33;15.53;;;8.80;99.90;;;;;;5006958;28;20276;-68
2022/12/22 07:24:58;;;;;;;15.03;11.57;;;8.80;59.40;;;;;;5004821;28;20951;-67
2022/12/22 07:27:24;;;;;;;14.23;11.27;;;8.80;99.90;;;;;;4996987;28;20211;-67
2022/12/22 07:30:00;;;;;;;13.07;10.37;;;8.70;99.90;;;;;;5150438;27;20679;-69
2022/12/22 07:32:27;;;;;;;14.70;12.50;;;8.70;99.90;;;;;;5106183;27;20543;-69
2022/12/22 07:34:53;;;;;;;15.23;12.07;;;8.70;99.90;;;;;;5122790;27;20205;-69
2022/12/22 07:37:27;;;;;;;12.97;11.50;;;8.70;99.90;;;;;;5136953;27;20667;-68
2022/12/22 07:39:54;;;;;;;14.23;12.60;;;8.70;99.90;;;;;;5122191;27;20276;-68
2022/12/22 07:45:06;;;;;;;12.13;10.73;;;8.80;99.90;;;;;;5139903;27;20185;-69
2022/12/22 07:47:33;;;;;;;12.77;10.27;;;8.80;99.90;;;;;;5142576;27;20234;-69
2022/12/22 07:52:48;;;;;;;12.50;10.80;;;8.90;99.90;;;;;;5113729;27;20225;-68
2022/12/22 07:55:15;;;;;;;12.00;10.13;;;8.90;99.90;;;;;;5120712;27;20230;-68
2022/12/22 07:57:42;;;;;;;14.43;11.50;;;8.90;99.90;;;;;;5102481;27;20197;-69
2022/12/22 08:00:10;;;;;;;14.67;11.67;;;8.90;99.90;;;;;;5120828;27;20291;-69
2022/12/22 08:02:39;;;;;;;13.67;10.67;;;8.90;99.90;;;;;;5112206;28;20271;-70
2022/12/22 08:05:09;;;;;;;14.03;11.13;;;8.80;1.00;;;;;;5104894;28;20185;-69
2022/12/22 08:07:36;;;;;;;17.03;12.53;;;8.90;1.00;;;;;;5102281;27;20668;-66
2022/12/22 08:10:04;;;;;;;14.93;11.63;;;8.90;1.00;;;;;;5103808;28;20219;-67
2022/12/22 08:12:31;;;;;;;15.77;11.20;;;8.90;1.00;;;;;;5102996;27;20280;-67
2022/12/22 08:14:58;;;;;;;18.87;12.17;;;8.90;1.00;;;;;;5120763;27;20189;-67
2022/12/22 08:17:26;;;;;;;16.07;11.43;;;8.90;1.00;;;;;;5104972;28;20775;-67
2022/12/22 08:19:54;;;;;;;15.37;10.73;;;8.90;1.00;;;;;;5103742;28;20197;-68
2022/12/22 08:22:25;;;;;;;15.10;11.00;;;8.90;1.00;;;;;;5104298;28;20265;-68
2022/12/22 08:24:53;;;;;;;13.10;10.63;;;8.90;1.00;;;;;;5103113;28;20726;-68
2022/12/22 08:27:25;;;;;;;13.83;11.57;;;8.90;1.00;;;;;;5119894;27;20205;-68
2022/12/22 08:29:59;;;;;;;16.73;12.13;;;8.90;1.00;;;;;;5092011;28;20229;-70
2022/12/22 08:32:26;;;;;;;17.53;11.43;;;8.90;1.00;;;;;;5100015;28;20261;-68
2022/12/22 08:34:53;;;;;;;18.10;12.37;;;9.00;1.00;;;;;;5099199;28;20290;-68
2022/12/22 08:37:23;;;;;;;15.37;12.17;;;9.00;1.00;;;;;;5099348;28;20186;-67
2022/12/22 08:39:57;;;;;;;15.70;11.80;;;9.00;1.00;;;;;;5096397;28;20281;-69
2022/12/22 08:42:25;;;;;;;19.57;13.20;;;9.00;1.00;;;;;;5102918;27;20268;-67
2022/12/22 08:44:52;;;;;;;21.33;13.83;;;9.00;1.00;;;;;;5087331;28;20658;-69
2022/12/22 08:47:20;;;;;;;25.70;15.57;;;9.10;1.00;;;;;;5080062;28;20209;-68
2022/12/22 08:49:48;;;;;;;27.60;16.67;;;9.10;1.00;;;;;;5084773;28;20319;-69
2022/12/22 08:52:15;;;;;;;33.83;17.50;;;9.20;1.00;;;;;;5079336;28;20413;-67
2022/12/22 08:54:45;;;;;;;34.63;18.47;;;9.20;1.00;;;;;;5081306;28;20244;-67
2022/12/22 08:57:12;;;;;;;43.67;20.03;;;9.20;1.00;;;;;;5078355;28;20706;-68
2022/12/22 08:59:39;;;;;;;50.10;19.80;;;9.20;1.00;;;;;;5085744;28;20195;-66
2022/12/22 09:02:06;;;;;;;50.83;20.37;;;9.20;1.00;;;;;;5087886;28;20242;-67
2022/12/22 09:04:34;;;;;;;58.50;21.17;;;9.20;1.00;;;;;;5086981;28;20222;-67
2022/12/22 09:07:01;;;;;;;61.10;22.07;;;9.30;1.00;;;;;;5086384;28;20278;-67
2022/12/22 09:09:33;;;;;;;56.87;20.43;;;9.30;1.00;;;;;;5082706;28;20668;-68
2022/12/22 09:12:01;;;;;;;58.13;21.17;;;9.30;1.00;;;;;;5083400;28;20671;-68
2022/12/22 09:14:29;;;;;;;62.67;21.70;;;9.40;1.00;;;;;;5073880;28;20186;-67
2022/12/22 09:16:56;;;;;;;52.90;20.47;;;9.40;1.00;;;;;;5084216;28;20201;-69
2022/12/22 09:19:23;;;;;;;57.70;21.23;;;9.40;1.00;;;;;;5083666;28;20281;-65
2022/12/22 09:21:50;;;;;;;51.33;20.23;;;9.40;1.00;;;;;;5085021;28;20571;-69
2022/12/22 09:24:17;;;;;;;50.53;20.03;;;9.40;1.00;;;;;;5085913;28;20271;-68
2022/12/22 09:26:44;;;;;;;48.87;19.17;;;9.50;1.00;;;;;;5084023;28;20653;-69
2022/12/22 09:29:14;;;;;;;45.23;18.80;;;9.50;1.00;;;;;;5081333;28;20245;-69
2022/12/22 09:31:42;;;;;;;45.33;18.93;;;9.50;1.00;;;;;;5100817;28;20210;-70
2022/12/22 09:34:09;;;;;;;41.63;18.27;;;9.50;1.00;;;;;;5088734;28;20198;-70
2022/12/22 09:36:44;;;;;;;47.23;19.60;;;9.50;1.00;;;;;;5076883;28;20661;-67
2022/12/22 09:39:11;;;;;;;43.17;17.30;;;9.50;1.00;;;;;;5085547;28;20267;-69
2022/12/22 09:41:51;;;;;;;40.43;17.00;;;9.50;1.00;;;;;;5085204;28;20267;-67
2022/12/22 09:44:35;;;;;;;42.10;18.87;;;9.60;1.00;;;;;;5080880;28;20201;-67
2022/12/22 09:47:24;;;;;;;43.03;19.13;;;9.70;1.00;;;;;;5102337;27;20241;-69
2022/12/22 09:49:54;;;;;;;37.40;18.60;;;9.70;1.00;;;;;;5084980;28;20245;-68
2022/12/22 09:52:43;;;;;;;43.57;20.53;;;9.80;1.00;;;;;;5084571;28;20186;-67
2022/12/22 09:55:24;;;;;;;37.43;18.73;;;9.90;1.00;;;;;;5083717;28;20697;-68
2022/12/22 09:57:55;;;;;;;41.90;18.50;;;9.90;1.00;;;;;;5081579;28;20815;-67
2022/12/22 10:00:25;;;;;;;43.27;17.63;;;9.90;1.00;;;;;;5070607;28;20240;-68
2022/12/22 10:03:11;;;;;;;34.63;17.20;;;9.90;1.00;;;;;;5083625;28;20764;-68
2022/12/22 10:05:49;;;;;;;34.03;17.23;;;9.90;1.00;;;;;;5081964;28;20236;-67
2022/12/22 10:08:26;;;;;;;37.93;18.10;;;9.90;1.00;;;;;;5088577;28;20276;-67
2022/12/22 10:10:55;;;;;;;36.73;17.83;;;9.90;1.00;;;;;;5100402;28;20186;-69
2022/12/22 10:13:22;;;;;;;34.17;17.80;;;9.90;1.00;;;;;;5085055;28;20230;-68
2022/12/22 10:15:50;;;;;;;37.23;17.23;;;10.00;1.00;;;;;;5084107;28;20209;-68
2022/12/22 10:18:28;;;;;;;38.20;17.33;;;10.00;1.00;;;;;;5085151;28;20202;-67
2022/12/22 10:21:11;;;;;;;33.30;16.40;;;10.10;1.00;;;;;;5065460;28;20202;-68
2022/12/22 10:23:44;;;;;;;31.70;15.67;;;10.00;1.00;;;;;;5083882;28;20278;-67
2022/12/22 10:26:20;;;;;;;29.17;15.33;;;10.00;1.00;;;;;;5086697;28;20269;-68
2022/12/22 10:29:03;;;;;;;31.43;17.30;;;10.00;1.00;;;;;;5098709;28;20233;-68
2022/12/22 10:31:32;;;;;;;33.53;17.27;;;10.00;1.00;;;;;;5087505;27;20577;-68
2022/12/22 10:34:15;;;;;;;33.97;19.10;;;9.90;99.90;;;;;;5087810;28;20193;-68
2022/12/22 10:36:55;;;;;;;31.30;16.90;;;9.90;1.00;;;;;;5103327;28;21029;-66
2022/12/22 10:39:33;;;;;;;47.27;26.03;;;9.80;1.00;;;;;;5100055;28;20556;-67
2022/12/22 10:42:14;;;;;;;29.47;15.93;;;9.90;1.00;;;;;;5104503;28;20193;-68
2022/12/22 10:44:47;;;;;;;28.77;14.37;;;9.80;99.90;;;;;;5088237;28;20613;-69
2022/12/22 10:47:22;;;;;;;23.80;13.37;;;9.80;1.00;;;;;;5098960;28;20296;-68
2022/12/22 10:49:55;;;;;;;28.23;14.87;;;9.80;1.00;;;;;;5105839;28;20203;-67
2022/12/22 10:52:22;;;;;;;19.50;12.73;;;9.70;1.00;;;;;;5081933;28;20181;-70
2022/12/22 10:55:15;;;;;;;28.60;16.23;;;9.70;99.90;;;;;;5101154;28;20195;-67
2022/12/22 10:57:42;;;;;;;25.47;15.43;;;9.70;1.00;;;;;;5080199;28;20743;-67
2022/12/22 11:00:30;;;;;;;25.13;16.03;;;9.70;96.00;;;;;;5102601;27;20281;-68
2022/12/22 11:02:59;;;;;;;34.77;17.00;;;9.70;1.00;;;;;;5085427;28;20597;-67
2022/12/22 11:05:28;;;;;;;27.47;16.50;;;9.70;99.90;;;;;;5079412;28;20590;-67
2022/12/22 11:07:59;;;;;;;26.97;16.67;;;9.70;99.90;;;;;;5103400;28;20194;-68
2022/12/22 11:10:32;;;;;;;30.97;22.17;;;9.70;99.90;;;;;;5103361;27;20220;-67
2022/12/22 11:13:18;;;;;;;33.23;21.47;;;9.70;24.10;;;;;;5102950;28;20206;-68
2022/12/22 11:16:13;;;;;;;25.00;15.27;;;9.70;1.00;;;;;;5104114;28;20204;-68
2022/12/22 11:18:44;;;;;;;24.60;15.47;;;9.70;1.00;;;;;;5105274;28;20185;-68
2022/12/22 11:21:45;;;;;;;25.27;16.00;;;9.70;1.00;;;;;;5087260;28;20724;-68
2022/12/22 11:24:31;;;;;;;25.73;16.40;;;9.80;1.00;;;;;;5083415;28;20198;-67
2022/12/22 11:27:22;;;;;;;26.97;16.30;;;9.80;99.90;;;;;;5087319;28;20238;-67
2022/12/22 11:29:54;;;;;;;26.20;17.00;;;9.70;10.00;;;;;;5086313;28;20320;-68
2022/12/22 11:32:50;;;;;;;30.80;16.77;;;9.70;1.00;;;;;;5085331;28;20198;-68
2022/12/22 11:35:32;;;;;;;26.27;16.77;;;9.80;1.00;;;;;;5098629;28;20197;-68
2022/12/22 11:38:27;;;;;;;30.73;22.30;;;9.80;1.00;;;;;;5101564;28;20216;-68
2022/12/22 11:41:38;;;;;;;37.53;25.77;;;9.80;1.00;;;;;;5102988;28;20712;-68
2022/12/22 11:44:47;;;;;;;24.50;15.10;;;9.90;1.00;;;;;;5086453;28;20276;-68
2022/12/22 11:47:17;;;;;;;25.13;15.67;;;9.90;99.90;;;;;;5080561;28;20221;-68
2022/12/22 11:49:44;;;;;;;23.33;15.93;;;10.00;99.90;;;;;;5103806;28;20220;-68
2022/12/22 11:52:43;;;;;;;26.37;16.03;;;10.00;1.00;;;;;;5086309;28;20293;-68
2022/12/22 11:55:12;;;;;;;25.87;16.87;;;10.10;1.00;;;;;;5103863;28;20185;-67
2022/12/22 11:57:39;;;;;;;28.27;17.23;;;10.70;1.00;;;;;;5086628;28;20201;-68
2022/12/22 12:00:12;;;;;;;20.07;14.50;;;12.20;1.00;;;;;;5101307;28;20706;-68
2022/12/22 12:02:40;;;;;;;16.45;12.15;;;13.40;99.90;;;;;;5076267;28;20244;-68
2022/12/22 12:05:32;;;;;;;16.40;12.07;;;13.40;20.30;;;;;;5100481;28;20660;-68
2022/12/22 12:08:16;;;;;;;15.20;12.57;;;13.00;1.00;;;;;;5103692;28;20999;-68
2022/12/22 12:10:56;;;;;;;15.03;12.33;;;12.60;1.00;;;;;;5104911;28;20201;-67
2022/12/22 12:13:36;;;;;;;15.37;12.70;;;12.30;1.00;;;;;;5100543;28;20219;-68
2022/12/22 12:16:12;;;;;;;15.00;13.15;;;12.90;1.00;;;;;;5089469;28;20391;-69
2022/12/22 12:18:50;;;;;;;14.35;12.27;;;14.00;1.00;;;;;;5108873;28;20250;-68
2022/12/22 12:21:28;;;;;;;16.23;12.85;;;13.90;1.00;;;;;;5108688;27;20185;-67
2022/12/22 12:23:58;;;;;;;15.15;12.40;;;13.30;1.00;;;;;;5107637;27;20216;-68
2022/12/22 12:26:31;;;;;;;14.57;12.55;;;12.70;1.00;;;;;;5110965;28;20682;-68
2022/12/22 12:29:14;;;;;;;13.55;12.18;;;12.00;1.00;;;;;;5090751;28;20633;-67
2022/12/22 12:32:05;;;;;;;13.07;11.30;;;11.70;1.00;;;;;;5083772;28;20285;-68
2022/12/22 12:34:36;;;;;;;12.57;11.07;;;12.10;1.00;;;;;;5090401;28;20227;-68
2022/12/22 12:37:15;;;;;;;13.20;10.65;;;13.20;1.00;;;;;;5109834;27;20194;-68
2022/12/22 12:39:58;;;;;;;17.13;10.95;;;14.30;1.00;;;;;;5105648;28;20216;-68
2022/12/22 12:42:35;;;;;;;11.65;9.63;;;15.40;1.00;;;;;;5086180;28;20232;-68
2022/12/22 12:45:04;;;;;;;10.60;9.27;;;16.10;1.00;;;;;;5110121;27;20827;-69
2022/12/22 12:47:33;;;;;;;10.23;8.73;;;15.60;1.00;;;;;;5109312;27;20715;-69
2022/12/22 12:50:33;;;;;;;11.60;9.02;;;15.10;1.00;;;;;;5110019;27;20684;-68
2022/12/22 12:53:06;;;;;;;11.80;9.57;;;14.20;1.00;;;;;;5085211;28;20210;-68
2022/12/22 12:55:50;;;;;;;11.93;10.10;;;14.10;1.00;;;;;;5090866;28;20217;-67
2022/12/22 12:58:39;;;;;;;14.07;10.35;;;14.10;1.00;;;;;;5108069;28;20276;-68
2022/12/22 13:01:11;;;;;;;12.57;9.67;;;14.30;1.00;;;;;;5110118;28;20197;-67
2022/12/22 13:03:41;;;;;;;10.73;9.17;;;13.40;1.00;;;;;;5090252;28;20699;-67
2022/12/22 13:06:46;;;;;;;11.50;9.63;;;13.20;1.00;;;;;;5107922;28;20559;-69
2022/12/22 13:09:24;;;;;;;13.33;10.97;;;13.20;1.00;;;;;;5091106;28;20214;-68
2022/12/22 13:12:33;;;;;;;11.23;9.13;;;12.70;1.00;;;;;;5107212;27;20668;-68
2022/12/22 13:15:00;;;;;;;12.33;10.27;;;12.70;1.00;;;;;;5082596;28;20743;-67
2022/12/22 13:17:37;;;;;;;15.20;11.03;;;12.60;1.00;;;;;;5075134;28;20208;-67
2022/12/22 13:20:12;;;;;;;13.43;10.20;;;12.50;1.00;;;;;;5071214;28;20262;-68
2022/12/22 13:22:42;;;;;;;14.20;11.37;;;12.30;1.00;;;;;;5109173;28;20246;-67
2022/12/22 13:25:16;;;;;;;14.30;11.60;;;12.10;1.00;;;;;;5091824;28;20564;-68
2022/12/22 13:27:44;;;;;;;14.77;11.87;;;12.10;1.00;;;;;;5108896;27;20231;-68
2022/12/22 13:30:16;;;;;;;14.73;12.27;;;12.00;1.00;;;;;;5091773;28;20292;-68
2022/12/22 13:32:47;;;;;;;14.87;12.50;;;11.70;1.00;;;;;;5089634;28;20284;-68
2022/12/22 13:35:21;;;;;;;16.10;13.27;;;11.50;1.00;;;;;;5107043;28;20212;-68
2022/12/22 13:37:58;;;;;;;16.93;12.90;;;11.30;1.00;;;;;;5089981;28;21158;-67
2022/12/22 13:40:29;;;;;;;17.67;13.80;;;11.00;1.00;;;;;;5085619;28;20269;-67
2022/12/22 13:43:04;;;;;;;15.60;13.87;;;10.80;1.00;;;;;;5099867;27;20661;-66
2022/12/22 13:45:36;;;;;;;17.93;13.73;;;10.70;1.00;;;;;;5108297;28;20253;-67
2022/12/22 13:48:24;;;;;;;18.27;14.60;;;10.60;1.00;;;;;;5090914;28;20196;-66
2022/12/22 13:50:54;;;;;;;18.37;13.90;;;10.50;1.00;;;;;;5083373;28;20320;-66
2022/12/22 13:53:42;;;;;;;19.83;12.47;;;10.40;1.00;;;;;;5106604;27;20735;-68
2022/12/22 13:56:45;;;;;;;16.30;12.20;;;10.30;1.00;;;;;;5105639;28;20732;-68
2022/12/22 13:59:27;;;;;;;17.03;12.20;;;10.20;1.00;;;;;;5107040;27;20197;-66
2022/12/22 14:02:18;;;;;;;18.37;11.63;;;10.10;1.00;;;;;;5103792;28;20632;-68
2022/12/22 14:05:06;;;;;;;26.17;11.67;;;10.00;1.00;;;;;;5108094;27;20560;-68
2022/12/22 14:07:33;;;;;;;17.60;12.17;;;9.90;1.00;;;;;;5088145;28;20193;-70
2022/12/22 14:10:00;;;;;;;21.20;12.30;;;10.10;1.00;;;;;;5104183;28;20300;-69
2022/12/22 14:12:30;;;;;;;21.83;12.67;;;10.10;1.00;;;;;;5087715;28;20726;-70
2022/12/22 14:15:00;;;;;;;20.47;13.80;;;10.20;1.00;;;;;;5077462;28;20197;-68
2022/12/22 14:17:36;;;;;;;21.00;14.27;;;10.30;1.00;;;;;;5106161;28;20189;-70
2022/12/22 14:20:26;;;;;;;20.00;13.10;;;10.30;1.00;;;;;;5107032;28;20567;-70
2022/12/22 14:23:24;;;;;;;18.27;14.40;;;10.20;1.00;;;;;;5108687;28;20656;-71
2022/12/22 14:25:53;;;;;;;22.17;15.23;;;10.10;1.00;;;;;;5101591;28;20274;-71
2022/12/22 14:28:20;;;;;;;23.47;16.30;;;10.00;1.00;;;;;;5082111;28;20510;-71
2022/12/22 14:30:52;;;;;;;21.97;16.40;;;10.00;1.00;;;;;;5081800;28;20228;-69
2022/12/22 14:33:28;;;;;;;21.47;16.97;;;9.90;1.00;;;;;;5109093;28;20269;-67
2022/12/22 14:36:14;;;;;;;21.97;16.80;;;9.90;1.00;;;;;;5081280;28;20846;-67
2022/12/22 14:38:46;;;;;;;20.40;15.40;;;9.80;1.00;;;;;;5107479;28;20193;-70
2022/12/22 14:41:40;;;;;;;24.03;15.90;;;9.90;1.00;;;;;;5106593;28;20282;-70
2022/12/22 14:44:22;;;;;;;24.03;15.97;;;9.80;1.00;;;;;;5108321;28;20198;-70
2022/12/22 14:47:27;;;;;;;20.17;15.20;;;9.90;1.00;;;;;;5107754;28;20240;-68
2022/12/22 14:50:22;;;;;;;19.47;14.50;;;9.80;1.00;;;;;;5108032;28;20209;-71
2022/12/22 14:52:58;;;;;;;18.37;12.90;;;9.80;1.00;;;;;;5086360;28;20203;-67
2022/12/22 14:55:40;;;;;;;18.93;13.70;;;9.70;1.00;;;;;;5106205;28;20229;-68
2022/12/22 14:58:25;;;;;;;21.13;13.53;;;9.70;1.00;;;;;;5088963;28;20694;-71
2022/12/22 15:01:12;;;;;;;17.90;14.00;;;9.60;1.00;;;;;;5096774;27;20205;-70
2022/12/22 15:03:41;;;;;;;17.20;12.90;;;9.60;1.00;;;;;;5107195;28;20301;-68
2022/12/22 15:06:27;;;;;;;16.03;12.33;;;9.60;1.00;;;;;;5086961;28;20772;-68
2022/12/22 15:09:14;;;;;;;18.47;12.50;;;9.60;1.00;;;;;;5104390;28;20284;-67
2022/12/22 15:11:48;;;;;;;18.90;13.67;;;9.50;1.00;;;;;;5054775;28;20652;-69
2022/12/22 15:14:23;;;;;;;20.93;14.07;;;9.40;1.00;;;;;;5104662;28;20197;-69
2022/12/22 15:16:56;;;;;;;20.70;14.80;;;9.20;1.00;;;;;;5108377;28;20224;-68
2022/12/22 15:19:23;;;;;;;20.00;13.77;;;9.10;1.00;;;;;;5087149;28;20394;-70
2022/12/22 15:21:50;;;;;;;20.70;14.90;;;8.90;1.00;;;;;;5084671;28;20193;-68
2022/12/22 15:24:18;;;;;;;17.27;13.93;;;8.90;1.00;;;;;;5088976;28;20221;-67
2022/12/22 15:26:45;;;;;;;21.50;15.50;;;8.80;1.00;;;;;;5106073;28;20277;-67
2022/12/22 15:29:13;;;;;;;20.37;14.27;;;8.70;1.00;;;;;;5106523;28;20217;-65
2022/12/22 15:31:41;;;;;;;20.43;14.07;;;8.60;1.00;;;;;;5083399;28;20266;-68
2022/12/22 15:34:27;;;;;;;21.43;14.77;;;8.50;1.00;;;;;;5102983;28;20188;-68
2022/12/22 15:36:54;;;;;;;21.13;13.87;;;8.40;1.00;;;;;;5105870;28;20248;-68
2022/12/22 15:39:23;;;;;;;22.60;15.60;;;8.20;1.00;;;;;;5088628;28;20669;-68
2022/12/22 15:41:50;;;;;;;22.77;15.47;;;8.30;1.00;;;;;;5106684;28;20198;-67
2022/12/22 15:44:17;;;;;;;22.57;14.40;;;8.30;1.00;;;;;;5085304;28;20699;-69
2022/12/22 15:46:56;;;;;;;27.37;21.37;;;8.20;1.00;;;;;;5084293;28;20212;-69
2022/12/22 15:49:29;;;;;;;21.33;15.53;;;8.20;1.00;;;;;;5102669;28;20610;-68
2022/12/22 15:52:01;;;;;;;36.13;25.90;;;8.10;1.00;;;;;;5089375;28;20214;-65
2022/12/22 15:54:31;;;;;;;66.40;45.60;;;8.10;1.00;;;;;;5092551;28;20709;-68
2022/12/22 15:56:59;;;;;;;41.40;29.60;;;8.00;1.00;;;;;;5090757;28;20212;-72
2022/12/22 15:59:28;;;;;;;28.77;24.90;;;8.00;5.20;;;;;;5093218;28;20219;-69
2022/12/22 16:01:56;;;;;;;53.23;46.13;;;8.20;1.00;;;;;;5105377;28;20229;-69
2022/12/22 16:04:28;;;;;;;44.67;37.73;;;8.20;1.00;;;;;;5109267;28;20287;-69
2022/12/22 16:06:55;;;;;;;25.30;21.57;;;8.20;1.00;;;;;;5090957;28;20219;-69
2022/12/22 16:09:26;;;;;;;26.77;22.90;;;8.20;1.00;;;;;;5090700;28;20316;-69
2022/12/22 16:11:53;;;;;;;22.93;16.67;;;8.20;1.00;;;;;;5103610;28;20553;-68
2022/12/22 16:14:22;;;;;;;29.30;20.50;;;8.10;1.00;;;;;;5105862;28;20185;-68
2022/12/22 16:16:49;;;;;;;55.43;39.40;;;7.90;1.00;;;;;;5106582;28;20197;-68
2022/12/22 16:19:17;;;;;;;39.13;29.70;;;7.90;1.00;;;;;;5108736;28;20250;-68
2022/12/22 16:21:46;;;;;;;39.87;34.93;;;7.90;1.00;;;;;;5107839;28;20185;-68
2022/12/22 16:24:22;;;;;;;25.97;19.77;;;7.80;1.00;;;;;;5083085;28;20221;-67
2022/12/22 16:26:49;;;;;;;32.77;23.47;;;7.80;1.00;;;;;;5073638;28;20293;-68
2022/12/22 16:29:16;;;;;;;36.53;26.77;;;7.90;1.00;;;;;;5092256;28;20225;-68
2022/12/22 16:31:43;;;;;;;33.03;25.60;;;7.90;1.00;;;;;;5108436;28;20233;-68
2022/12/22 16:34:10;;;;;;;41.93;31.07;;;7.90;1.00;;;;;;5109364;28;20193;-69
2022/12/22 16:36:38;;;;;;;26.47;18.80;;;7.80;1.00;;;;;;5088820;28;20200;-68
2022/12/22 16:39:05;;;;;;;28.67;20.20;;;7.90;1.00;;;;;;5107190;27;20185;-66
2022/12/22 16:41:35;;;;;;;25.47;20.27;;;7.90;1.00;;;;;;5109459;28;20239;-67
2022/12/22 16:44:07;;;;;;;26.23;20.93;;;7.90;1.00;;;;;;5074839;28;20243;-67
2022/12/22 16:46:37;;;;;;;24.17;19.83;;;7.90;1.00;;;;;;5074341;28;20207;-67
2022/12/22 16:49:07;;;;;;;24.17;19.27;;;7.90;1.00;;;;;;5107182;28;20205;-68
2022/12/22 16:51:38;;;;;;;24.47;16.20;;;7.90;1.00;;;;;;5086349;28;20677;-68
2022/12/22 16:54:06;;;;;;;22.30;19.63;;;8.00;1.00;;;;;;5100169;27;20205;-68